Time;durP1;ratioP1;P1;durP2;ratioP2;P2;SDS_P1;SDS_P2;PMS_P1;PMS_P2;Temp;Humidity;BMP_temperature;BMP_pressure;BME280_temperature;BME280_humidity;BME280_pressure;Samples;Min_cycle;Max_cycle;Signal;HPM_P1;HPM_P2
2022/08/12 00:44:40;;;;;;;0.80;0.60;;;21.70;99.90;;;;;;5137383;27;20416;-71
2022/08/12 00:47:09;;;;;;;1.60;0.70;;;21.60;99.90;;;;;;5137853;27;20550;-72
2022/08/12 00:49:37;;;;;;;1.97;0.70;;;21.60;99.90;;;;;;5137878;27;20938;-73
2022/08/12 00:52:06;;;;;;;1.20;0.70;;;21.50;99.90;;;;;;5137674;27;20480;-72
2022/08/12 00:54:35;;;;;;;1.40;0.70;;;21.50;99.90;;;;;;5137029;27;20883;-72
2022/08/12 00:57:04;;;;;;;1.20;0.77;;;21.40;99.90;;;;;;5137362;27;20738;-71
2022/08/12 00:59:31;;;;;;;1.13;1.00;;;21.50;99.90;;;;;;5137620;27;20435;-71
2022/08/12 01:02:01;;;;;;;1.00;0.80;;;21.50;99.90;;;;;;5137789;27;20506;-71
2022/08/12 01:12:46;;;;;;;1.50;0.70;;;21.20;99.90;;;;;;5137314;27;20435;-72
2022/08/12 01:15:14;;;;;;;1.03;0.80;;;21.20;99.90;;;;;;5137465;27;20810;-71
2022/08/12 01:17:44;;;;;;;0.70;0.70;;;21.30;99.90;;;;;;5137351;27;20452;-72
2022/08/12 01:20:21;;;;;;;1.00;0.80;;;21.30;99.90;;;;;;5137342;27;20894;-72
2022/08/12 01:23:04;;;;;;;1.10;0.60;;;21.20;99.90;;;;;;5137253;27;20483;-72
2022/08/12 01:25:37;;;;;;;1.27;0.80;;;21.20;99.90;;;;;;5137332;27;20443;-72
2022/08/12 01:28:07;;;;;;;1.20;0.70;;;21.20;99.90;;;;;;5137178;27;20459;-72
2022/08/12 01:30:35;;;;;;;0.90;0.70;;;21.20;99.90;;;;;;5137562;27;20471;-73
2022/08/12 01:33:04;;;;;;;2.17;0.60;;;21.10;99.90;;;;;;5136711;27;20512;-72
2022/08/12 01:35:34;;;;;;;1.60;0.60;;;21.10;99.90;;;;;;5137210;27;20452;-73
2022/08/12 01:38:04;;;;;;;0.93;0.70;;;21.10;99.90;;;;;;5137252;27;20512;-72
2022/08/12 01:40:37;;;;;;;0.70;0.60;;;21.10;99.90;;;;;;5137216;27;20443;-73
2022/08/12 01:43:07;;;;;;;1.67;0.70;;;21.10;99.90;;;;;;5137181;27;20504;-73
2022/08/12 01:45:39;;;;;;;0.90;0.70;;;21.00;99.90;;;;;;5137735;27;20440;-72
2022/08/12 01:48:14;;;;;;;0.90;0.70;;;21.00;99.90;;;;;;5137428;27;20452;-72
2022/08/12 01:50:55;;;;;;;0.87;0.67;;;21.00;99.90;;;;;;5136828;27;20513;-72
2022/08/12 01:53:25;;;;;;;0.70;0.60;;;21.00;99.90;;;;;;5136622;27;20466;-73
2022/08/12 01:55:55;;;;;;;1.10;0.60;;;20.90;99.90;;;;;;5136946;27;20879;-72
2022/08/12 01:58:28;;;;;;;0.70;0.50;;;21.00;99.90;;;;;;5137125;27;20455;-72
2022/08/12 02:00:59;;;;;;;0.70;0.60;;;20.90;99.90;;;;;;5137027;27;20534;-73
2022/08/12 02:12:39;;;;;;;0.97;0.50;;;20.90;99.90;;;;;;5140646;27;20793;-70
2022/08/12 02:15:16;;;;;;;0.93;0.70;;;20.90;99.90;;;;;;5140836;27;20762;-71
2022/08/12 02:17:58;;;;;;;0.77;0.60;;;20.90;99.90;;;;;;5140987;27;20461;-73
2022/08/12 02:20:35;;;;;;;1.00;0.60;;;20.80;99.90;;;;;;5140910;27;20436;-73
2022/08/12 02:23:04;;;;;;;0.87;0.60;;;20.70;99.90;;;;;;5140429;27;21004;-71
2022/08/12 02:25:36;;;;;;;0.80;0.60;;;20.70;99.90;;;;;;5141260;27;20487;-73
2022/08/12 02:28:05;;;;;;;1.10;0.70;;;20.70;99.90;;;;;;5140726;27;20519;-72
2022/08/12 02:30:35;;;;;;;1.63;0.70;;;20.70;99.90;;;;;;5140659;27;20537;-72
2022/08/12 02:33:05;;;;;;;0.77;0.60;;;20.60;99.90;;;;;;5139939;27;20508;-72
2022/08/12 02:35:34;;;;;;;1.20;0.60;;;20.60;99.90;;;;;;5140307;27;20928;-72
2022/08/12 02:38:04;;;;;;;1.17;0.60;;;20.60;99.90;;;;;;5140786;27;20474;-72
2022/08/12 02:40:31;;;;;;;0.80;0.60;;;20.60;99.90;;;;;;5140495;27;20550;-72
2022/08/12 02:43:02;;;;;;;0.70;0.50;;;20.50;99.90;;;;;;5140409;27;20463;-72
2022/08/12 02:45:41;;;;;;;0.93;0.60;;;20.50;99.90;;;;;;5140569;27;20540;-71
2022/08/12 02:48:11;;;;;;;3.43;0.80;;;20.50;99.90;;;;;;5140225;27;20823;-72
2022/08/12 02:50:45;;;;;;;0.80;0.70;;;20.50;99.90;;;;;;5140017;27;21017;-72
2022/08/12 02:53:13;;;;;;;0.80;0.70;;;20.40;99.90;;;;;;5140479;27;20554;-72
2022/08/12 02:55:40;;;;;;;0.80;0.60;;;20.50;99.90;;;;;;5140140;27;20535;-71
2022/08/12 02:58:08;;;;;;;1.00;0.60;;;20.50;99.90;;;;;;5140307;27;20555;-72
2022/08/12 03:00:39;;;;;;;1.00;0.63;;;20.40;99.90;;;;;;5140593;27;20530;-73
2022/08/12 03:03:08;;;;;;;1.00;0.60;;;20.40;99.90;;;;;;5140097;27;20550;-72
2022/08/12 03:05:38;;;;;;;1.07;0.60;;;20.40;99.90;;;;;;5140396;27;20745;-72
2022/08/12 03:08:09;;;;;;;2.27;0.80;;;20.50;99.90;;;;;;5139896;27;20550;-71
2022/08/12 03:10:40;;;;;;;0.70;0.53;;;20.50;99.90;;;;;;5139598;27;20498;-73
2022/08/12 03:13:09;;;;;;;0.80;0.70;;;20.40;99.90;;;;;;5139781;27;20481;-73
2022/08/12 03:15:39;;;;;;;0.83;0.60;;;20.40;99.90;;;;;;5138910;27;20452;-73
2022/08/12 03:18:13;;;;;;;0.70;0.60;;;20.50;99.90;;;;;;5139781;27;20448;-72
2022/08/12 03:20:41;;;;;;;1.00;0.60;;;20.40;99.90;;;;;;5139664;27;20863;-72
2022/08/12 03:23:11;;;;;;;0.70;0.60;;;20.30;99.90;;;;;;5139397;27;20952;-73
2022/08/12 03:25:40;;;;;;;0.93;0.60;;;20.30;99.90;;;;;;5139577;27;20448;-73
2022/08/12 03:28:10;;;;;;;1.20;0.80;;;20.30;99.90;;;;;;5139419;27;20451;-73
2022/08/12 03:30:41;;;;;;;1.00;0.80;;;20.40;99.90;;;;;;5139604;27;20864;-73
2022/08/12 03:33:12;;;;;;;0.70;0.60;;;20.40;99.90;;;;;;5138219;27;20462;-71
2022/08/12 03:35:41;;;;;;;0.80;0.60;;;20.30;99.90;;;;;;5139844;27;20486;-71
2022/08/12 03:38:10;;;;;;;1.03;0.73;;;20.30;99.90;;;;;;5139016;27;20502;-71
2022/08/12 04:00:20;;;;;;;2.73;0.60;;;19.90;1.00;;;;;;5138137;27;20499;-73
2022/08/12 04:02:58;;;;;;;1.00;0.67;;;19.90;1.00;;;;;;5138273;27;20534;-72
2022/08/12 04:05:26;;;;;;;0.80;0.77;;;19.90;1.00;;;;;;5138538;27;20435;-72
2022/08/12 04:07:53;;;;;;;1.63;0.60;;;19.80;1.00;;;;;;5138489;27;20444;-72
2022/08/12 04:10:20;;;;;;;0.80;0.60;;;19.80;1.00;;;;;;5138716;27;20521;-72
2022/08/12 04:15:44;;;;;;;0.90;0.67;;;19.70;1.00;;;;;;5138347;27;20423;-72
2022/08/12 04:18:14;;;;;;;1.10;0.73;;;19.80;1.00;;;;;;5138709;27;20524;-73
2022/08/12 04:20:42;;;;;;;1.07;0.70;;;19.70;1.00;;;;;;5138370;27;20440;-71
2022/08/12 04:23:11;;;;;;;0.83;0.70;;;19.70;1.00;;;;;;5137717;27;20479;-71
2022/08/12 04:25:40;;;;;;;1.00;0.60;;;19.70;1.00;;;;;;5138086;27;20875;-72
2022/08/12 04:28:07;;;;;;;0.97;0.60;;;19.70;1.00;;;;;;5137685;27;20483;-72
2022/08/12 04:30:35;;;;;;;0.80;0.70;;;19.70;1.00;;;;;;5137822;27;20484;-72
2022/08/12 04:33:02;;;;;;;0.90;0.70;;;19.70;1.00;;;;;;5137684;27;20463;-71
2022/08/12 04:35:31;;;;;;;0.90;0.70;;;19.70;1.00;;;;;;5137483;27;20474;-71
2022/08/12 04:37:59;;;;;;;1.47;0.73;;;19.60;1.00;;;;;;5137800;27;20455;-70
2022/08/12 04:40:27;;;;;;;0.80;0.60;;;19.70;1.00;;;;;;5137427;27;20936;-72
2022/08/12 04:42:54;;;;;;;1.20;0.70;;;19.60;1.00;;;;;;5137341;27;20456;-70
2022/08/12 04:45:21;;;;;;;1.00;0.77;;;19.60;1.00;;;;;;5136858;27;20539;-73
2022/08/12 04:47:49;;;;;;;1.73;0.70;;;19.60;1.00;;;;;;5137180;27;20903;-73
2022/08/12 04:50:17;;;;;;;0.90;0.70;;;19.60;1.00;;;;;;5137449;27;20942;-71
2022/08/12 04:52:45;;;;;;;1.10;0.60;;;19.60;1.00;;;;;;5136161;27;20811;-72
2022/08/12 04:55:12;;;;;;;1.10;0.67;;;19.60;1.00;;;;;;5137190;27;20447;-73
2022/08/12 04:57:39;;;;;;;1.23;0.70;;;19.60;1.00;;;;;;5137725;27;20483;-74
2022/08/12 05:00:12;;;;;;;0.90;0.70;;;19.60;1.00;;;;;;5137691;27;20440;-73
2022/08/12 05:02:38;;;;;;;0.90;0.60;;;19.60;1.00;;;;;;5137601;27;20797;-72
2022/08/12 05:05:08;;;;;;;1.10;0.70;;;19.60;1.00;;;;;;5137475;27;20914;-72
2022/08/12 05:07:35;;;;;;;1.00;0.60;;;19.60;1.00;;;;;;5137618;27;20546;-72
2022/08/12 05:10:04;;;;;;;1.10;0.80;;;19.60;1.00;;;;;;5137266;27;20471;-73
2022/08/12 05:12:36;;;;;;;3.57;0.80;;;19.60;1.00;;;;;;5136900;27;20806;-72
2022/08/12 05:15:04;;;;;;;2.03;0.80;;;19.60;1.00;;;;;;5137365;27;20818;-72
2022/08/12 05:17:31;;;;;;;1.20;0.73;;;19.60;1.00;;;;;;5137375;27;20452;-71
2022/08/12 05:19:58;;;;;;;0.80;0.60;;;19.60;1.00;;;;;;5137139;27;20906;-73
2022/08/12 05:22:25;;;;;;;1.63;0.70;;;19.70;1.00;;;;;;5135626;27;20499;-72
2022/08/12 05:24:52;;;;;;;1.67;0.70;;;19.80;1.00;;;;;;5135504;27;20789;-72
2022/08/12 05:27:21;;;;;;;1.00;0.70;;;19.80;1.00;;;;;;5135752;27;20550;-71
2022/08/12 05:29:48;;;;;;;1.17;0.70;;;19.80;1.00;;;;;;5135840;27;20508;-72
2022/08/12 05:32:19;;;;;;;0.83;0.67;;;20.00;1.00;;;;;;5135156;27;20483;-72
2022/08/12 05:34:46;;;;;;;1.10;0.80;;;19.90;1.00;;;;;;5136278;27;20447;-72
2022/08/12 05:37:13;;;;;;;1.70;0.80;;;19.90;1.00;;;;;;5135692;27;20500;-71
2022/08/12 05:39:40;;;;;;;1.97;0.63;;;19.90;1.00;;;;;;5135118;27;20448;-71
2022/08/12 05:42:08;;;;;;;1.33;0.70;;;20.00;1.00;;;;;;5134872;27;20447;-71
2022/08/12 05:44:36;;;;;;;2.47;0.77;;;19.90;1.00;;;;;;5136391;27;20479;-72
2022/08/12 05:47:04;;;;;;;0.93;0.70;;;19.80;1.00;;;;;;5135249;27;20452;-72
2022/08/12 05:49:33;;;;;;;0.87;0.70;;;19.70;1.00;;;;;;5135157;27;20448;-71
2022/08/12 05:52:00;;;;;;;0.90;0.60;;;19.70;1.00;;;;;;5134971;27;20580;-71
2022/08/12 05:54:27;;;;;;;1.10;0.70;;;19.80;1.00;;;;;;5134938;27;20466;-71
2022/08/12 05:56:54;;;;;;;0.90;0.70;;;19.90;1.00;;;;;;5134927;27;20886;-71
2022/08/12 05:59:22;;;;;;;0.90;0.80;;;20.10;1.00;;;;;;5134271;27;20530;-71
2022/08/12 06:01:50;;;;;;;0.80;0.60;;;20.00;1.00;;;;;;5134576;27;20444;-71
2022/08/12 06:04:17;;;;;;;3.30;2.37;;;19.90;1.00;;;;;;5134381;27;20538;-72
2022/08/12 06:06:50;;;;;;;1.20;1.00;;;19.90;1.00;;;;;;5134615;27;20907;-71
2022/08/12 06:09:17;;;;;;;1.10;0.77;;;20.00;1.00;;;;;;5134312;27;20451;-71
2022/08/12 06:11:46;;;;;;;0.90;0.70;;;20.00;1.00;;;;;;5134893;27;20529;-72
2022/08/12 06:14:13;;;;;;;1.00;0.60;;;20.00;1.00;;;;;;5134996;27;20483;-72
2022/08/12 06:16:42;;;;;;;2.43;0.77;;;20.00;1.00;;;;;;5134028;27;20444;-71
2022/08/12 06:19:10;;;;;;;1.57;0.70;;;20.10;1.00;;;;;;5134435;27;20454;-71
2022/08/12 06:21:37;;;;;;;1.47;0.70;;;20.10;1.00;;;;;;5134473;27;20479;-72
2022/08/12 06:24:07;;;;;;;0.93;0.63;;;20.30;1.00;;;;;;5126014;27;20888;-69
2022/08/12 06:26:35;;;;;;;0.80;0.60;;;20.50;1.00;;;;;;5130760;27;20444;-73
2022/08/12 06:29:02;;;;;;;1.07;0.77;;;20.60;1.00;;;;;;5123084;27;21106;-73
2022/08/12 06:31:29;;;;;;;0.93;0.67;;;20.60;1.00;;;;;;5129007;27;20471;-73
2022/08/12 06:33:56;;;;;;;2.13;0.70;;;20.50;1.00;;;;;;5135090;27;20780;-72
2022/08/12 06:36:24;;;;;;;1.00;0.73;;;20.50;1.00;;;;;;5110334;28;20456;-72
2022/08/12 06:38:52;;;;;;;1.10;0.80;;;20.50;1.00;;;;;;5115228;27;20759;-72
2022/08/12 06:44:14;;;;;;;2.07;1.10;;;20.70;1.00;;;;;;5125912;27;20419;-73
2022/08/12 06:46:42;;;;;;;1.00;0.63;;;20.70;1.00;;;;;;5122059;27;20448;-72
2022/08/12 06:49:12;;;;;;;1.63;0.70;;;20.80;1.00;;;;;;5124471;27;20529;-71
2022/08/12 06:51:40;;;;;;;1.97;0.90;;;20.90;1.00;;;;;;5131069;27;20503;-72
2022/08/12 06:54:09;;;;;;;2.40;0.60;;;20.90;1.00;;;;;;5133086;27;20907;-71
2022/08/12 06:56:37;;;;;;;1.20;0.73;;;21.00;1.00;;;;;;5134087;27;21100;-71
2022/08/12 06:59:04;;;;;;;3.27;1.00;;;21.10;1.00;;;;;;5132745;27;20844;-71
2022/08/12 07:01:31;;;;;;;3.90;2.73;;;21.20;1.00;;;;;;5135168;27;20948;-71
2022/08/12 07:03:58;;;;;;;1.37;0.80;;;21.30;1.00;;;;;;5130644;27;20460;-72
2022/08/12 07:06:26;;;;;;;1.00;0.70;;;21.40;1.00;;;;;;5134555;27;20499;-71
2022/08/12 07:08:54;;;;;;;0.90;0.70;;;21.40;1.00;;;;;;5116095;27;20452;-71
2022/08/12 07:11:21;;;;;;;0.80;0.60;;;21.50;1.00;;;;;;5130178;27;20507;-71
2022/08/12 07:13:51;;;;;;;1.00;0.80;;;21.70;1.00;;;;;;5130763;27;20475;-71
2022/08/12 07:16:20;;;;;;;1.20;0.70;;;22.00;1.00;;;;;;5133956;27;20526;-71
2022/08/12 07:18:49;;;;;;;1.90;0.70;;;22.00;1.00;;;;;;5118450;27;20441;-71
2022/08/12 07:21:18;;;;;;;1.60;0.70;;;22.00;1.00;;;;;;5136519;27;20939;-72
2022/08/12 07:23:46;;;;;;;0.80;0.60;;;22.10;1.00;;;;;;5121592;27;20476;-71
2022/08/12 07:26:18;;;;;;;1.03;0.70;;;22.20;1.00;;;;;;5117592;27;20448;-72
2022/08/12 07:28:49;;;;;;;0.77;0.60;;;22.40;1.00;;;;;;5130462;27;20448;-72
2022/08/12 07:31:17;;;;;;;2.13;0.67;;;22.50;1.00;;;;;;5128342;27;20476;-72
2022/08/12 07:33:44;;;;;;;0.93;0.60;;;22.50;1.00;;;;;;5121246;27;20880;-72
2022/08/12 07:36:13;;;;;;;0.70;0.50;;;22.60;99.90;;;;;;5130148;27;20453;-71
2022/08/12 07:38:45;;;;;;;0.77;0.60;;;22.80;1.00;;;;;;5122935;27;20479;-71
2022/08/12 07:41:16;;;;;;;1.53;0.70;;;22.80;99.90;;;;;;5132179;27;20444;-72
2022/08/12 07:43:45;;;;;;;0.70;0.63;;;22.90;99.90;;;;;;5135112;27;20546;-71
2022/08/12 07:46:15;;;;;;;1.10;0.60;;;22.90;99.90;;;;;;5131138;27;20559;-72
2022/08/12 07:48:44;;;;;;;1.60;0.70;;;22.80;99.90;;;;;;5118022;27;20460;-72
2022/08/12 07:51:12;;;;;;;0.63;0.53;;;22.90;99.90;;;;;;5120046;27;20583;-72
2022/08/12 07:53:40;;;;;;;0.90;0.60;;;23.00;99.90;;;;;;5135381;27;20586;-72
2022/08/12 07:56:09;;;;;;;1.93;0.60;;;23.10;99.90;;;;;;5128374;27;21059;-72
2022/08/12 07:58:39;;;;;;;0.70;0.60;;;23.10;99.90;;;;;;5125049;27;20464;-71
2022/08/12 08:01:09;;;;;;;0.80;0.60;;;23.10;99.90;;;;;;5135282;27;20984;-72
2022/08/12 08:03:36;;;;;;;1.90;0.70;;;23.10;99.90;;;;;;5127360;27;20463;-72
2022/08/12 08:06:04;;;;;;;1.67;0.60;;;23.30;99.90;;;;;;5134072;27;20444;-72
2022/08/12 08:08:31;;;;;;;0.97;0.67;;;23.50;99.90;;;;;;5127586;27;20461;-71
2022/08/12 08:13:42;;;;;;;1.10;0.60;;;23.70;99.90;;;;;;5130336;27;20424;-71
2022/08/12 08:16:09;;;;;;;1.33;0.60;;;23.80;99.90;;;;;;5126721;27;20480;-71
2022/08/12 08:18:37;;;;;;;0.93;0.60;;;23.90;99.90;;;;;;5117582;27;20768;-70
2022/08/12 08:21:07;;;;;;;3.70;0.67;;;23.80;99.90;;;;;;5117981;27;20433;-69
2022/08/12 08:26:24;;;;;;;0.70;0.50;;;23.90;99.90;;;;;;5135431;27;21206;-69
2022/08/12 08:28:53;;;;;;;1.57;0.50;;;24.10;99.90;;;;;;5130770;27;20455;-71
2022/08/12 08:31:20;;;;;;;0.80;0.60;;;24.20;99.90;;;;;;5133606;27;20464;-69
2022/08/12 08:33:49;;;;;;;1.20;0.67;;;24.30;99.90;;;;;;5130799;27;20467;-70
2022/08/12 08:36:16;;;;;;;1.00;0.60;;;24.50;99.90;;;;;;5133940;27;20471;-68
2022/08/12 08:38:44;;;;;;;0.60;0.50;;;24.60;99.90;;;;;;5133033;27;20471;-70
2022/08/12 08:44:00;;;;;;;0.80;0.60;;;24.70;99.90;;;;;;5116865;27;20652;-70
2022/08/12 08:46:27;;;;;;;1.83;0.70;;;24.70;99.90;;;;;;5132091;27;20444;-71
2022/08/12 08:48:55;;;;;;;3.00;0.60;;;24.80;99.90;;;;;;5128967;27;20533;-70
2022/08/12 08:51:25;;;;;;;2.40;0.60;;;25.00;99.90;;;;;;5119562;27;20511;-71
2022/08/12 08:53:53;;;;;;;0.80;0.60;;;25.00;99.90;;;;;;5132853;27;20451;-71
2022/08/12 08:56:20;;;;;;;0.90;0.53;;;25.10;99.90;;;;;;5119804;27;20542;-70
2022/08/12 08:58:48;;;;;;;1.33;0.60;;;25.20;99.90;;;;;;5134688;27;20475;-71
2022/08/12 09:01:21;;;;;;;0.77;0.50;;;25.30;99.90;;;;;;5123454;27;20439;-71
2022/08/12 09:03:48;;;;;;;0.83;0.50;;;25.50;99.90;;;;;;5134848;27;20543;-71
2022/08/12 09:06:15;;;;;;;0.70;0.50;;;25.50;99.90;;;;;;5129223;27;20436;-71
2022/08/12 09:08:43;;;;;;;0.70;0.60;;;25.60;99.90;;;;;;5136191;27;20907;-71
2022/08/12 09:13:54;;;;;;;0.80;0.67;;;25.80;99.90;;;;;;5135541;27;20722;-71
2022/08/12 09:16:23;;;;;;;0.97;0.50;;;25.80;99.90;;;;;;5124604;27;20436;-70
2022/08/12 09:18:50;;;;;;;0.67;0.47;;;26.00;99.90;;;;;;5134950;27;20759;-70
2022/08/12 09:21:17;;;;;;;0.60;0.50;;;26.20;99.90;;;;;;5123635;27;20535;-71
2022/08/12 09:23:44;;;;;;;0.60;0.50;;;26.20;99.90;;;;;;5135628;27;20558;-70
2022/08/12 09:26:14;;;;;;;0.70;0.60;;;26.30;99.90;;;;;;5129559;27;20461;-72
2022/08/12 09:28:41;;;;;;;1.10;0.50;;;26.30;99.90;;;;;;5134560;27;20481;-73
2022/08/12 09:31:08;;;;;;;0.70;0.50;;;26.50;99.90;;;;;;5119195;27;20979;-71
2022/08/12 09:33:37;;;;;;;0.90;0.63;;;26.50;99.90;;;;;;5129338;27;20458;-72
2022/08/12 09:36:04;;;;;;;0.50;0.40;;;26.60;99.90;;;;;;5129495;27;20805;-72
2022/08/12 09:38:32;;;;;;;0.60;0.50;;;26.70;99.90;;;;;;5123589;27;20551;-71
2022/08/12 09:41:00;;;;;;;0.93;0.50;;;26.80;99.90;;;;;;5115954;28;20450;-75
2022/08/12 09:46:16;;;;;;;1.10;0.50;;;27.00;99.90;;;;;;5131895;27;20438;-73
2022/08/12 09:48:44;;;;;;;0.80;0.60;;;27.10;99.90;;;;;;5133102;27;20473;-74
2022/08/12 09:51:15;;;;;;;1.07;0.73;;;27.20;99.90;;;;;;5132133;27;20859;-73
2022/08/12 09:53:42;;;;;;;0.70;0.40;;;27.20;99.90;;;;;;5123713;27;20460;-75
2022/08/12 09:56:11;;;;;;;1.17;0.73;;;27.30;99.90;;;;;;5130312;27;20456;-72
2022/08/12 09:58:39;;;;;;;0.80;0.70;;;27.20;99.90;;;;;;5133937;27;20492;-71
2022/08/12 10:01:06;;;;;;;6.17;0.60;;;27.40;99.90;;;;;;5131176;27;20933;-71
2022/08/12 10:03:35;;;;;;;0.90;0.50;;;27.40;99.90;;;;;;5134616;27;20490;-72
2022/08/12 10:06:05;;;;;;;1.00;0.50;;;27.40;99.90;;;;;;5116046;28;20545;-71
2022/08/12 10:08:35;;;;;;;2.10;0.60;;;27.50;99.90;;;;;;5133191;27;20976;-72
2022/08/12 10:13:51;;;;;;;0.50;0.40;;;27.70;99.90;;;;;;5132498;27;20492;-72
2022/08/12 10:16:20;;;;;;;1.73;0.50;;;27.80;99.90;;;;;;5118071;27;20456;-72
2022/08/12 10:18:52;;;;;;;0.73;0.53;;;28.00;99.90;;;;;;5133687;27;20455;-73
2022/08/12 10:21:22;;;;;;;0.93;0.60;;;28.10;99.90;;;;;;5128238;27;20554;-72
2022/08/12 10:23:52;;;;;;;0.90;0.50;;;28.10;99.90;;;;;;5131700;28;21117;-74
2022/08/12 10:31:52;;;;;;;0.70;0.60;;;28.60;99.90;;;;;;5110699;28;20518;-72
2022/08/12 10:34:21;;;;;;;0.73;0.50;;;28.90;99.90;;;;;;5115214;28;20475;-72
2022/08/12 10:36:52;;;;;;;2.15;0.60;;;29.30;99.90;;;;;;5114915;28;20446;-72
2022/08/12 10:39:19;;;;;;;2.83;0.60;;;29.50;99.90;;;;;;5110373;28;20228;-73
2022/08/12 10:44:32;;;;;;;1.70;0.60;;;29.30;99.90;;;;;;5110692;28;20451;-72
2022/08/12 10:46:59;;;;;;;0.53;0.40;;;29.40;99.90;;;;;;5096560;28;20529;-71
2022/08/12 10:49:33;;;;;;;0.60;0.50;;;29.30;99.90;;;;;;5110017;27;20468;-72
2022/08/12 10:52:02;;;;;;;0.80;0.50;;;29.50;99.90;;;;;;5116665;28;21090;-71
2022/08/12 10:54:29;;;;;;;0.77;0.60;;;29.90;99.90;;;;;;5109990;28;20463;-72
2022/08/12 10:56:59;;;;;;;0.60;0.60;;;29.90;99.90;;;;;;5098187;28;21047;-73
2022/08/12 10:59:28;;;;;;;0.70;0.50;;;30.00;99.90;;;;;;5113384;28;20872;-73
2022/08/12 11:01:56;;;;;;;0.70;0.50;;;29.50;99.90;;;;;;5104479;28;20820;-72
2022/08/12 11:04:24;;;;;;;0.50;0.40;;;29.00;99.90;;;;;;5097951;28;20457;-72
2022/08/12 11:06:52;;;;;;;0.57;0.50;;;29.40;99.90;;;;;;5104576;28;20464;-72
2022/08/12 11:09:26;;;;;;;0.50;0.40;;;29.70;99.90;;;;;;5116311;28;20453;-72
2022/08/12 11:11:54;;;;;;;1.13;0.60;;;29.60;99.90;;;;;;5109204;28;20522;-73
2022/08/12 11:14:27;;;;;;;0.90;0.50;;;29.70;99.90;;;;;;5108272;28;20571;-73
2022/08/12 11:16:56;;;;;;;0.67;0.50;;;29.90;99.90;;;;;;5099962;27;20465;-73
2022/08/12 11:19:23;;;;;;;0.63;0.50;;;29.40;99.90;;;;;;5116760;28;20547;-73
2022/08/12 11:21:51;;;;;;;0.80;0.50;;;29.30;99.90;;;;;;5114971;28;20448;-75
2022/08/12 11:24:21;;;;;;;2.23;0.60;;;29.30;99.90;;;;;;5116309;27;20477;-72
2022/08/12 11:26:49;;;;;;;0.60;0.40;;;29.10;99.90;;;;;;5134813;27;20435;-73
2022/08/12 11:29:16;;;;;;;1.07;0.60;;;28.60;99.90;;;;;;5119251;27;20510;-72
2022/08/12 11:31:44;;;;;;;0.50;0.40;;;28.70;99.90;;;;;;5116481;28;20517;-72
2022/08/12 11:34:11;;;;;;;0.60;0.47;;;29.20;99.90;;;;;;5116660;27;21122;-72
2022/08/12 11:36:39;;;;;;;2.57;1.60;;;29.90;99.90;;;;;;5137216;27;20518;-72
2022/08/12 11:39:07;;;;;;;1.57;0.50;;;30.00;99.90;;;;;;5100009;27;20462;-73
2022/08/12 11:41:38;;;;;;;0.60;0.50;;;30.30;99.90;;;;;;5117957;28;20498;-72
2022/08/12 11:44:05;;;;;;;0.80;0.40;;;30.30;99.90;;;;;;5114797;28;20456;-72
2022/08/12 11:46:36;;;;;;;1.33;0.43;;;29.80;99.90;;;;;;5117209;28;20455;-73
2022/08/12 11:49:03;;;;;;;0.67;0.40;;;29.60;99.90;;;;;;5098793;28;20457;-73
2022/08/12 11:51:30;;;;;;;0.70;0.50;;;29.90;99.90;;;;;;5094201;28;20453;-73
2022/08/12 11:54:00;;;;;;;0.73;0.40;;;29.80;99.90;;;;;;5096701;28;20583;-72
2022/08/12 11:56:29;;;;;;;0.60;0.50;;;29.40;99.90;;;;;;5130806;27;20459;-74
2022/08/12 11:58:58;;;;;;;0.60;0.40;;;29.20;99.90;;;;;;5136298;27;20914;-72
2022/08/12 12:01:30;;;;;;;0.60;0.50;;;28.80;99.90;;;;;;5136092;27;21153;-72
2022/08/12 12:03:58;;;;;;;0.67;0.40;;;28.80;99.90;;;;;;5135378;27;20755;-72
2022/08/12 12:06:26;;;;;;;0.70;0.50;;;29.30;99.90;;;;;;5135746;27;20534;-73
2022/08/12 12:08:54;;;;;;;3.60;0.50;;;29.90;99.90;;;;;;5134360;27;20460;-73
2022/08/12 12:11:21;;;;;;;0.80;0.50;;;30.30;99.90;;;;;;5135032;27;20500;-71
2022/08/12 12:13:48;;;;;;;1.50;0.60;;;30.90;99.90;;;;;;5134481;27;20602;-71
2022/08/12 12:16:17;;;;;;;0.77;0.50;;;31.10;99.90;;;;;;5136139;27;20452;-71
2022/08/12 12:18:44;;;;;;;0.80;0.50;;;31.40;99.90;;;;;;5136708;27;20459;-71
2022/08/12 12:21:11;;;;;;;0.60;0.50;;;31.00;99.90;;;;;;5135561;27;20903;-70
2022/08/12 12:23:38;;;;;;;0.50;0.40;;;30.80;99.90;;;;;;5135523;27;20514;-73
2022/08/12 12:26:05;;;;;;;1.00;0.50;;;30.70;99.90;;;;;;5136987;27;20504;-73
2022/08/12 12:28:33;;;;;;;0.80;0.60;;;30.90;99.90;;;;;;5137137;27;20487;-72
2022/08/12 12:31:00;;;;;;;0.60;0.53;;;31.10;99.90;;;;;;5137279;27;20532;-72
2022/08/12 12:33:29;;;;;;;1.10;0.53;;;31.30;99.90;;;;;;5136927;27;20572;-72
2022/08/12 12:35:56;;;;;;;0.60;0.40;;;31.70;99.90;;;;;;5137894;27;20526;-70
2022/08/12 12:38:23;;;;;;;0.70;0.40;;;31.50;99.90;;;;;;5128160;27;20457;-72
2022/08/12 12:40:51;;;;;;;1.30;0.60;;;30.50;99.90;;;;;;5116356;28;20465;-71
2022/08/12 12:43:18;;;;;;;0.83;0.57;;;29.90;99.90;;;;;;5117012;28;20441;-71
2022/08/12 12:45:46;;;;;;;0.70;0.50;;;30.30;99.90;;;;;;5117360;28;20498;-72
2022/08/12 12:48:16;;;;;;;0.60;0.50;;;30.90;99.90;;;;;;5115975;28;20515;-72
2022/08/12 12:50:45;;;;;;;1.33;1.20;;;31.30;99.90;;;;;;5115318;28;20941;-72
2022/08/12 12:53:14;;;;;;;1.27;0.70;;;31.50;99.90;;;;;;5116092;28;20592;-72
2022/08/12 12:55:41;;;;;;;0.70;0.60;;;31.20;99.90;;;;;;5114240;28;20536;-72
2022/08/12 12:58:15;;;;;;;1.20;0.50;;;30.90;99.90;;;;;;5113799;28;20459;-72
2022/08/12 13:00:43;;;;;;;1.37;0.50;;;30.70;99.90;;;;;;5113338;28;20452;-72
2022/08/12 13:03:11;;;;;;;0.80;0.50;;;30.40;99.90;;;;;;5113909;28;20453;-72
2022/08/12 13:05:42;;;;;;;0.60;0.47;;;30.10;99.90;;;;;;5114330;28;20899;-71
2022/08/12 13:08:23;;;;;;;0.60;0.50;;;29.80;99.90;;;;;;5115499;28;20777;-71
2022/08/12 13:10:50;;;;;;;0.63;0.50;;;29.40;99.90;;;;;;5115784;28;20801;-71
2022/08/12 13:13:18;;;;;;;0.80;0.50;;;29.70;99.90;;;;;;5107434;28;20586;-71
2022/08/12 13:15:46;;;;;;;0.50;0.50;;;30.10;99.90;;;;;;5107751;28;20504;-72
2022/08/12 13:18:13;;;;;;;1.73;0.50;;;30.60;99.90;;;;;;5102375;28;20465;-73
2022/08/12 13:20:42;;;;;;;0.70;0.50;;;31.20;99.90;;;;;;5098701;28;20771;-73
2022/08/12 13:23:09;;;;;;;0.70;0.50;;;31.00;99.90;;;;;;5089279;28;20477;-72
2022/08/12 13:25:40;;;;;;;3.37;2.50;;;31.20;99.90;;;;;;5097212;28;20823;-72
2022/08/12 13:28:07;;;;;;;0.60;0.50;;;31.00;99.90;;;;;;5115016;28;20467;-72
2022/08/12 13:30:35;;;;;;;0.70;0.60;;;30.70;99.90;;;;;;5114587;28;20440;-72
2022/08/12 13:33:02;;;;;;;0.70;0.50;;;30.80;99.90;;;;;;5105700;28;20486;-71
2022/08/12 13:35:32;;;;;;;0.70;0.43;;;30.80;99.90;;;;;;5113802;28;20778;-73
2022/08/12 13:38:00;;;;;;;0.50;0.40;;;30.40;99.90;;;;;;5099989;28;20465;-73
2022/08/12 13:40:31;;;;;;;1.80;0.40;;;30.20;99.90;;;;;;5094813;28;20540;-72
2022/08/12 13:43:01;;;;;;;1.40;0.50;;;30.60;99.90;;;;;;5106362;28;20496;-72
2022/08/12 13:45:30;;;;;;;0.50;0.40;;;30.00;99.90;;;;;;5115665;28;20803;-72
2022/08/12 13:47:58;;;;;;;1.00;0.47;;;29.70;99.90;;;;;;5112353;28;20500;-72
2022/08/12 13:50:30;;;;;;;0.80;0.50;;;29.60;99.90;;;;;;5115399;28;20480;-72
2022/08/12 13:52:56;;;;;;;0.50;0.40;;;29.20;99.90;;;;;;5114580;28;20870;-72
2022/08/12 13:55:24;;;;;;;1.00;0.60;;;29.20;99.90;;;;;;5115841;28;20476;-72
2022/08/12 13:57:51;;;;;;;1.73;0.50;;;29.10;99.90;;;;;;5114766;28;20456;-72
2022/08/12 14:00:20;;;;;;;0.87;0.50;;;29.20;99.90;;;;;;5115365;28;20627;-72
2022/08/12 14:02:47;;;;;;;0.60;0.50;;;29.10;99.90;;;;;;5118025;28;20621;-72
2022/08/12 14:05:16;;;;;;;0.77;0.40;;;29.00;99.90;;;;;;5117942;28;20451;-72
2022/08/12 14:07:54;;;;;;;0.70;0.50;;;29.00;99.90;;;;;;5118186;28;20505;-72
2022/08/12 14:10:36;;;;;;;0.70;0.50;;;29.40;99.90;;;;;;5118631;28;20759;-72
2022/08/12 14:13:08;;;;;;;0.60;0.50;;;29.90;99.90;;;;;;5117345;28;20533;-72
2022/08/12 14:15:41;;;;;;;0.90;0.50;;;30.20;99.90;;;;;;5118124;28;20554;-72
2022/08/12 14:18:13;;;;;;;0.60;0.50;;;30.20;99.90;;;;;;5116882;28;20459;-72
2022/08/12 14:20:41;;;;;;;0.70;0.50;;;30.10;99.90;;;;;;5117158;28;20480;-72
2022/08/12 14:23:09;;;;;;;0.60;0.50;;;30.30;99.90;;;;;;5115876;27;20504;-72
2022/08/12 14:25:38;;;;;;;0.63;0.50;;;30.30;99.90;;;;;;5116221;28;20499;-73
2022/08/12 14:28:11;;;;;;;0.70;0.40;;;30.40;99.90;;;;;;5115371;28;20456;-72
2022/08/12 14:30:46;;;;;;;0.60;0.40;;;30.60;99.90;;;;;;5116778;27;20436;-72
2022/08/12 14:33:15;;;;;;;0.50;0.40;;;30.20;99.90;;;;;;5117587;27;20512;-73
2022/08/12 14:35:44;;;;;;;0.60;0.50;;;30.30;99.90;;;;;;5138624;27;20539;-73
2022/08/12 14:38:20;;;;;;;0.60;0.40;;;30.30;99.90;;;;;;5137635;27;20451;-73
2022/08/12 14:40:47;;;;;;;0.60;0.40;;;30.50;99.90;;;;;;5137847;27;20530;-73
2022/08/12 14:43:14;;;;;;;0.70;0.50;;;30.20;99.90;;;;;;5136478;27;20524;-72
2022/08/12 14:45:43;;;;;;;0.63;0.40;;;30.10;99.90;;;;;;5113470;28;20535;-73
2022/08/12 14:48:11;;;;;;;0.80;0.50;;;30.20;99.90;;;;;;5115543;28;20448;-73
2022/08/12 14:50:38;;;;;;;0.50;0.40;;;30.10;99.90;;;;;;5115069;28;20816;-73